Terminal Aerodrome Forecast
Issued by NWS

Current Version | Previous Version | Text Only | Print | Product List | Glossary Off
Versions: 1 2 3 4 5 6 7 8 9 10 11 12 13 14 15 16 17 18 19 20 21 22 23 24

000
FTUS41 KPBZ 312109 AAA
TAFMGW
TAF AMD
KMGW 312109Z 3121/0118 22008KT P6SM BKN050
      TEMPO 3122/3124 2SM -TSRA BKN050CB
     FM010000 23005KT P6SM VCSH BKN035
     FM010600 28005KT P6SM BKN015
     FM011000 30005KT P6SM BKN007
     FM011600 32005KT P6SM VCSH BKN015=

USA.gov is the U.S. government's official web portal to all federal, state and local government web resources and services.